sensor_id;sensor_type;location;lat;lon;timestamp;temperature;humidity
19192;DHT22;9728;48.194;16.346;2022-07-23T00:03:38;34.00;32.40
19192;DHT22;9728;48.194;16.346;2022-07-23T00:08:43;34.00;32.30
19192;DHT22;9728;48.194;16.346;2022-07-23T00:13:46;33.90;32.30
19192;DHT22;9728;48.194;16.346;2022-07-23T00:18:49;33.90;32.30
19192;DHT22;9728;48.194;16.346;2022-07-23T00:23:54;33.80;32.20
19192;DHT22;9728;48.194;16.346;2022-07-23T00:28:58;33.80;32.30
19192;DHT22;9728;48.194;16.346;2022-07-23T00:34:03;33.70;32.20
19192;DHT22;9728;48.194;16.346;2022-07-23T00:39:07;33.70;32.30
19192;DHT22;9728;48.194;16.346;2022-07-23T00:44:15;33.70;32.30
19192;DHT22;9728;48.194;16.346;2022-07-23T00:49:20;33.70;32.50
19192;DHT22;9728;48.194;16.346;2022-07-23T00:54:26;33.70;32.40
19192;DHT22;9728;48.194;16.346;2022-07-23T00:59:29;33.60;32.40
19192;DHT22;9728;48.194;16.346;2022-07-23T01:04:33;33.60;32.40
19192;DHT22;9728;48.194;16.346;2022-07-23T01:09:38;33.60;32.50
19192;DHT22;9728;48.194;16.346;2022-07-23T01:14:41;33.50;32.80
19192;DHT22;9728;48.194;16.346;2022-07-23T01:19:45;33.50;33.00
19192;DHT22;9728;48.194;16.346;2022-07-23T01:24:50;33.50;33.10
19192;DHT22;9728;48.194;16.346;2022-07-23T01:30:00;33.40;33.20
19192;DHT22;9728;48.194;16.346;2022-07-23T01:35:04;33.40;33.40
19192;DHT22;9728;48.194;16.346;2022-07-23T01:40:10;33.40;33.30
19192;DHT22;9728;48.194;16.346;2022-07-23T01:45:14;33.30;33.50
19192;DHT22;9728;48.194;16.346;2022-07-23T01:50:22;33.30;33.60
19192;DHT22;9728;48.194;16.346;2022-07-23T01:55:46;33.20;33.90
19192;DHT22;9728;48.194;16.346;2022-07-23T02:00:49;33.20;34.20
19192;DHT22;9728;48.194;16.346;2022-07-23T02:05:54;33.20;34.40
19192;DHT22;9728;48.194;16.346;2022-07-23T02:11:00;33.10;34.50
19192;DHT22;9728;48.194;16.346;2022-07-23T02:16:04;33.20;34.80
19192;DHT22;9728;48.194;16.346;2022-07-23T02:21:07;33.10;34.80
19192;DHT22;9728;48.194;16.346;2022-07-23T02:26:12;33.10;34.90
19192;DHT22;9728;48.194;16.346;2022-07-23T02:31:23;33.10;35.20
19192;DHT22;9728;48.194;16.346;2022-07-23T02:36:27;33.10;35.10
19192;DHT22;9728;48.194;16.346;2022-07-23T02:41:33;33.00;35.10
19192;DHT22;9728;48.194;16.346;2022-07-23T02:46:36;33.00;35.30
19192;DHT22;9728;48.194;16.346;2022-07-23T02:51:40;33.00;35.20
19192;DHT22;9728;48.194;16.346;2022-07-23T02:56:47;33.00;35.50
19192;DHT22;9728;48.194;16.346;2022-07-23T03:01:52;33.00;35.70
19192;DHT22;9728;48.194;16.346;2022-07-23T03:06:56;33.00;35.80
19192;DHT22;9728;48.194;16.346;2022-07-23T03:12:01;33.00;35.90
19192;DHT22;9728;48.194;16.346;2022-07-23T03:17:05;33.00;36.10
19192;DHT22;9728;48.194;16.346;2022-07-23T03:22:10;33.00;36.10
19192;DHT22;9728;48.194;16.346;2022-07-23T03:27:15;32.90;36.00
19192;DHT22;9728;48.194;16.346;2022-07-23T03:32:19;32.90;36.20
19192;DHT22;9728;48.194;16.346;2022-07-23T03:37:22;32.90;36.00
19192;DHT22;9728;48.194;16.346;2022-07-23T03:42:28;32.90;36.10
19192;DHT22;9728;48.194;16.346;2022-07-23T03:47:31;32.90;36.40
19192;DHT22;9728;48.194;16.346;2022-07-23T03:52:35;32.80;36.20
19192;DHT22;9728;48.194;16.346;2022-07-23T03:57:40;32.80;36.30
19192;DHT22;9728;48.194;16.346;2022-07-23T04:02:44;32.80;36.50
19192;DHT22;9728;48.194;16.346;2022-07-23T04:07:47;32.80;36.50
19192;DHT22;9728;48.194;16.346;2022-07-23T04:12:53;32.80;36.40
19192;DHT22;9728;48.194;16.346;2022-07-23T04:17:56;32.80;36.60
19192;DHT22;9728;48.194;16.346;2022-07-23T04:23:09;32.80;36.50
19192;DHT22;9728;48.194;16.346;2022-07-23T04:28:17;32.80;36.50
19192;DHT22;9728;48.194;16.346;2022-07-23T04:33:20;32.80;36.70
19192;DHT22;9728;48.194;16.346;2022-07-23T04:38:26;32.90;36.50
19192;DHT22;9728;48.194;16.346;2022-07-23T04:43:35;32.90;36.60
19192;DHT22;9728;48.194;16.346;2022-07-23T04:48:39;32.90;36.60
19192;DHT22;9728;48.194;16.346;2022-07-23T04:53:45;33.00;36.60
19192;DHT22;9728;48.194;16.346;2022-07-23T04:58:49;33.00;36.50
19192;DHT22;9728;48.194;16.346;2022-07-23T05:03:53;33.00;36.60
19192;DHT22;9728;48.194;16.346;2022-07-23T05:08:59;33.00;36.40
19192;DHT22;9728;48.194;16.346;2022-07-23T05:14:05;33.00;36.40
19192;DHT22;9728;48.194;16.346;2022-07-23T05:19:09;33.00;36.40
19192;DHT22;9728;48.194;16.346;2022-07-23T05:24:12;33.00;36.50
19192;DHT22;9728;48.194;16.346;2022-07-23T05:29:17;33.00;36.40
19192;DHT22;9728;48.194;16.346;2022-07-23T05:34:20;33.10;36.50
19192;DHT22;9728;48.194;16.346;2022-07-23T05:39:24;33.10;36.50
19192;DHT22;9728;48.194;16.346;2022-07-23T05:44:29;33.10;36.40
19192;DHT22;9728;48.194;16.346;2022-07-23T05:49:37;33.10;36.50
19192;DHT22;9728;48.194;16.346;2022-07-23T05:55:03;33.10;36.50
19192;DHT22;9728;48.194;16.346;2022-07-23T06:00:10;33.10;36.60
19192;DHT22;9728;48.194;16.346;2022-07-23T06:05:19;33.00;36.80
19192;DHT22;9728;48.194;16.346;2022-07-23T06:10:22;33.10;36.90
19192;DHT22;9728;48.194;16.346;2022-07-23T06:15:27;33.10;36.90
19192;DHT22;9728;48.194;16.346;2022-07-23T06:20:32;33.20;37.20
19192;DHT22;9728;48.194;16.346;2022-07-23T06:25:36;33.10;37.00
19192;DHT22;9728;48.194;16.346;2022-07-23T06:30:41;33.20;37.00
19192;DHT22;9728;48.194;16.346;2022-07-23T06:35:44;33.20;37.10
19192;DHT22;9728;48.194;16.346;2022-07-23T06:40:48;33.20;37.10
19192;DHT22;9728;48.194;16.346;2022-07-23T06:45:52;33.20;37.00
19192;DHT22;9728;48.194;16.346;2022-07-23T06:50:56;33.20;37.10
19192;DHT22;9728;48.194;16.346;2022-07-23T06:55:59;33.20;36.90
19192;DHT22;9728;48.194;16.346;2022-07-23T07:01:04;33.20;36.90
19192;DHT22;9728;48.194;16.346;2022-07-23T07:06:08;33.20;36.80
19192;DHT22;9728;48.194;16.346;2022-07-23T07:11:12;33.20;36.70
19192;DHT22;9728;48.194;16.346;2022-07-23T07:16:17;33.30;36.70
19192;DHT22;9728;48.194;16.346;2022-07-23T07:21:20;33.30;36.40
19192;DHT22;9728;48.194;16.346;2022-07-23T07:26:23;33.30;36.30
19192;DHT22;9728;48.194;16.346;2022-07-23T07:31:29;33.50;36.30
19192;DHT22;9728;48.194;16.346;2022-07-23T07:36:32;33.60;36.10
19192;DHT22;9728;48.194;16.346;2022-07-23T07:41:37;33.60;35.90
19192;DHT22;9728;48.194;16.346;2022-07-23T07:46:41;33.70;35.70
19192;DHT22;9728;48.194;16.346;2022-07-23T07:51:45;33.80;35.50
19192;DHT22;9728;48.194;16.346;2022-07-23T07:56:49;33.90;35.50
19192;DHT22;9728;48.194;16.346;2022-07-23T08:01:54;34.00;35.30
19192;DHT22;9728;48.194;16.346;2022-07-23T08:06:57;34.10;35.10
19192;DHT22;9728;48.194;16.346;2022-07-23T08:12:01;34.20;35.20
19192;DHT22;9728;48.194;16.346;2022-07-23T08:17:05;34.30;35.00
19192;DHT22;9728;48.194;16.346;2022-07-23T08:22:16;34.50;34.80
19192;DHT22;9728;48.194;16.346;2022-07-23T08:27:20;34.60;34.70
19192;DHT22;9728;48.194;16.346;2022-07-23T08:32:25;34.70;34.40
19192;DHT22;9728;48.194;16.346;2022-07-23T08:37:45;34.80;34.30
19192;DHT22;9728;48.194;16.346;2022-07-23T08:42:50;35.00;34.30
19192;DHT22;9728;48.194;16.346;2022-07-23T08:47:57;35.10;34.00
19192;DHT22;9728;48.194;16.346;2022-07-23T08:53:06;35.30;33.80
19192;DHT22;9728;48.194;16.346;2022-07-23T08:58:10;35.40;33.50
19192;DHT22;9728;48.194;16.346;2022-07-23T09:03:18;35.50;33.30
19192;DHT22;9728;48.194;16.346;2022-07-23T09:08:22;35.60;33.00
19192;DHT22;9728;48.194;16.346;2022-07-23T09:13:33;35.70;33.00
19192;DHT22;9728;48.194;16.346;2022-07-23T09:18:41;35.80;32.70
19192;DHT22;9728;48.194;16.346;2022-07-23T09:23:48;35.90;32.70
19192;DHT22;9728;48.194;16.346;2022-07-23T09:28:54;36.10;32.70
19192;DHT22;9728;48.194;16.346;2022-07-23T09:34:07;36.20;32.50
19192;DHT22;9728;48.194;16.346;2022-07-23T09:39:12;36.30;31.90
19192;DHT22;9728;48.194;16.346;2022-07-23T09:44:17;36.50;32.20
19192;DHT22;9728;48.194;16.346;2022-07-23T09:49:29;36.70;32.20
19192;DHT22;9728;48.194;16.346;2022-07-23T09:54:35;36.80;31.50
19192;DHT22;9728;48.194;16.346;2022-07-23T09:59:39;37.00;31.50
19192;DHT22;9728;48.194;16.346;2022-07-23T10:04:45;37.10;31.40
19192;DHT22;9728;48.194;16.346;2022-07-23T10:10:01;37.30;30.90
19192;DHT22;9728;48.194;16.346;2022-07-23T10:15:24;37.40;31.10
19192;DHT22;9728;48.194;16.346;2022-07-23T10:20:29;37.50;31.10
19192;DHT22;9728;48.194;16.346;2022-07-23T10:25:36;37.60;30.90
19192;DHT22;9728;48.194;16.346;2022-07-23T10:30:51;37.80;30.40
19192;DHT22;9728;48.194;16.346;2022-07-23T10:36:09;38.00;30.00
19192;DHT22;9728;48.194;16.346;2022-07-23T10:41:30;38.20;29.90
19192;DHT22;9728;48.194;16.346;2022-07-23T10:46:34;38.30;29.60
19192;DHT22;9728;48.194;16.346;2022-07-23T10:57:25;38.40;29.80
19192;DHT22;9728;48.194;16.346;2022-07-23T11:02:30;38.50;29.40
19192;DHT22;9728;48.194;16.346;2022-07-23T11:07:34;38.50;29.40
19192;DHT22;9728;48.194;16.346;2022-07-23T11:12:39;38.50;29.30
19192;DHT22;9728;48.194;16.346;2022-07-23T11:18:00;38.40;29.20
19192;DHT22;9728;48.194;16.346;2022-07-23T11:23:04;38.40;29.10
19192;DHT22;9728;48.194;16.346;2022-07-23T11:28:11;38.40;29.40
19192;DHT22;9728;48.194;16.346;2022-07-23T11:33:19;38.40;29.30
19192;DHT22;9728;48.194;16.346;2022-07-23T11:38:23;38.40;29.30
19192;DHT22;9728;48.194;16.346;2022-07-23T11:43:28;38.50;29.40
19192;DHT22;9728;48.194;16.346;2022-07-23T11:48:31;38.50;29.40
19192;DHT22;9728;48.194;16.346;2022-07-23T11:53:45;38.60;29.50
19192;DHT22;9728;48.194;16.346;2022-07-23T11:58:55;38.70;29.30
19192;DHT22;9728;48.194;16.346;2022-07-23T12:04:01;38.80;29.20
19192;DHT22;9728;48.194;16.346;2022-07-23T12:09:06;38.80;29.40
19192;DHT22;9728;48.194;16.346;2022-07-23T12:14:11;38.80;29.20
19192;DHT22;9728;48.194;16.346;2022-07-23T12:19:15;38.80;29.00
19192;DHT22;9728;48.194;16.346;2022-07-23T12:24:19;38.80;28.90
19192;DHT22;9728;48.194;16.346;2022-07-23T12:29:34;38.80;28.80
19192;DHT22;9728;48.194;16.346;2022-07-23T12:34:38;38.80;28.60
19192;DHT22;9728;48.194;16.346;2022-07-23T12:39:41;38.70;28.60
19192;DHT22;9728;48.194;16.346;2022-07-23T12:45:09;38.60;28.60
19192;DHT22;9728;48.194;16.346;2022-07-23T12:55:50;38.40;28.20
19192;DHT22;9728;48.194;16.346;2022-07-23T13:01:25;38.10;28.40
19192;DHT22;9728;48.194;16.346;2022-07-23T13:06:31;38.00;28.30
19192;DHT22;9728;48.194;16.346;2022-07-23T13:11:35;37.70;28.30
19192;DHT22;9728;48.194;16.346;2022-07-23T13:16:41;37.60;28.00
19192;DHT22;9728;48.194;16.346;2022-07-23T13:21:45;37.40;27.90
19192;DHT22;9728;48.194;16.346;2022-07-23T13:26:49;37.30;28.10
19192;DHT22;9728;48.194;16.346;2022-07-23T13:31:55;37.20;28.20
19192;DHT22;9728;48.194;16.346;2022-07-23T13:36:58;37.10;28.20
19192;DHT22;9728;48.194;16.346;2022-07-23T13:42:02;37.00;28.10
19192;DHT22;9728;48.194;16.346;2022-07-23T13:47:09;37.00;28.10
19192;DHT22;9728;48.194;16.346;2022-07-23T13:52:12;36.90;28.20
19192;DHT22;9728;48.194;16.346;2022-07-23T13:57:16;36.90;28.10
19192;DHT22;9728;48.194;16.346;2022-07-23T14:02:21;36.80;28.10
19192;DHT22;9728;48.194;16.346;2022-07-23T14:07:26;36.80;28.00
19192;DHT22;9728;48.194;16.346;2022-07-23T14:12:29;36.90;28.20
19192;DHT22;9728;48.194;16.346;2022-07-23T14:17:38;36.80;28.20
19192;DHT22;9728;48.194;16.346;2022-07-23T14:22:42;36.80;28.10
19192;DHT22;9728;48.194;16.346;2022-07-23T14:27:45;36.90;28.00
19192;DHT22;9728;48.194;16.346;2022-07-23T14:32:50;37.00;27.90
19192;DHT22;9728;48.194;16.346;2022-07-23T14:37:55;37.00;27.30
19192;DHT22;9728;48.194;16.346;2022-07-23T14:42:58;37.10;27.50
19192;DHT22;9728;48.194;16.346;2022-07-23T14:48:04;37.10;27.40
19192;DHT22;9728;48.194;16.346;2022-07-23T14:53:09;37.20;27.10
19192;DHT22;9728;48.194;16.346;2022-07-23T14:58:12;37.30;27.20
19192;DHT22;9728;48.194;16.346;2022-07-23T15:03:17;37.40;27.20
19192;DHT22;9728;48.194;16.346;2022-07-23T15:08:21;37.50;27.00
19192;DHT22;9728;48.194;16.346;2022-07-23T15:13:24;37.50;27.20
19192;DHT22;9728;48.194;16.346;2022-07-23T15:18:31;37.50;27.10
19192;DHT22;9728;48.194;16.346;2022-07-23T15:23:34;37.60;27.10
19192;DHT22;9728;48.194;16.346;2022-07-23T15:28:40;37.60;27.20
19192;DHT22;9728;48.194;16.346;2022-07-23T15:33:45;37.60;27.20
19192;DHT22;9728;48.194;16.346;2022-07-23T15:38:48;37.60;27.10
19192;DHT22;9728;48.194;16.346;2022-07-23T15:43:53;37.60;27.00
19192;DHT22;9728;48.194;16.346;2022-07-23T15:48:58;37.60;27.00
19192;DHT22;9728;48.194;16.346;2022-07-23T15:54:03;37.60;27.10
19192;DHT22;9728;48.194;16.346;2022-07-23T15:59:08;37.50;27.10
19192;DHT22;9728;48.194;16.346;2022-07-23T16:04:13;37.50;27.20
19192;DHT22;9728;48.194;16.346;2022-07-23T16:09:17;37.40;27.20
19192;DHT22;9728;48.194;16.346;2022-07-23T16:14:21;37.40;27.30
19192;DHT22;9728;48.194;16.346;2022-07-23T16:19:26;37.30;27.30
19192;DHT22;9728;48.194;16.346;2022-07-23T16:24:29;37.20;27.40
19192;DHT22;9728;48.194;16.346;2022-07-23T16:29:33;37.20;27.50
19192;DHT22;9728;48.194;16.346;2022-07-23T16:34:38;37.20;27.50
19192;DHT22;9728;48.194;16.346;2022-07-23T16:39:41;37.10;27.40
19192;DHT22;9728;48.194;16.346;2022-07-23T16:44:45;37.00;27.40
19192;DHT22;9728;48.194;16.346;2022-07-23T16:49:50;37.00;27.50
19192;DHT22;9728;48.194;16.346;2022-07-23T16:54:54;36.90;27.40
19192;DHT22;9728;48.194;16.346;2022-07-23T16:59:57;36.90;27.40
19192;DHT22;9728;48.194;16.346;2022-07-23T17:05:02;36.90;27.50
19192;DHT22;9728;48.194;16.346;2022-07-23T17:10:07;36.80;27.50
19192;DHT22;9728;48.194;16.346;2022-07-23T17:15:11;36.70;27.50
19192;DHT22;9728;48.194;16.346;2022-07-23T17:20:16;36.60;27.70
19192;DHT22;9728;48.194;16.346;2022-07-23T17:25:20;36.60;27.80
19192;DHT22;9728;48.194;16.346;2022-07-23T17:30:26;36.50;27.90
19192;DHT22;9728;48.194;16.346;2022-07-23T17:35:30;36.40;28.00
19192;DHT22;9728;48.194;16.346;2022-07-23T17:40:34;36.30;28.10
19192;DHT22;9728;48.194;16.346;2022-07-23T17:45:37;36.20;28.20
19192;DHT22;9728;48.194;16.346;2022-07-23T17:50:44;36.10;28.40
19192;DHT22;9728;48.194;16.346;2022-07-23T17:55:54;36.00;28.40
19192;DHT22;9728;48.194;16.346;2022-07-23T18:00:58;36.00;28.60
19192;DHT22;9728;48.194;16.346;2022-07-23T18:06:03;35.90;28.60
19192;DHT22;9728;48.194;16.346;2022-07-23T18:11:07;35.80;28.80
19192;DHT22;9728;48.194;16.346;2022-07-23T18:16:10;35.80;28.80
19192;DHT22;9728;48.194;16.346;2022-07-23T18:21:15;35.80;28.90
19192;DHT22;9728;48.194;16.346;2022-07-23T18:26:19;35.70;29.10
19192;DHT22;9728;48.194;16.346;2022-07-23T18:31:22;35.70;29.00
19192;DHT22;9728;48.194;16.346;2022-07-23T18:36:27;35.60;29.00
19192;DHT22;9728;48.194;16.346;2022-07-23T18:41:33;35.60;29.20
19192;DHT22;9728;48.194;16.346;2022-07-23T18:46:37;35.50;29.30
19192;DHT22;9728;48.194;16.346;2022-07-23T18:51:41;35.50;29.30
19192;DHT22;9728;48.194;16.346;2022-07-23T18:56:45;35.50;29.50
19192;DHT22;9728;48.194;16.346;2022-07-23T19:01:48;35.50;29.50
19192;DHT22;9728;48.194;16.346;2022-07-23T19:06:53;35.40;29.50
19192;DHT22;9728;48.194;16.346;2022-07-23T19:11:57;35.40;29.60
19192;DHT22;9728;48.194;16.346;2022-07-23T19:17:00;35.40;29.70
19192;DHT22;9728;48.194;16.346;2022-07-23T19:22:05;35.30;29.70
19192;DHT22;9728;48.194;16.346;2022-07-23T19:27:10;35.30;30.00
19192;DHT22;9728;48.194;16.346;2022-07-23T19:32:14;35.30;30.00
19192;DHT22;9728;48.194;16.346;2022-07-23T19:37:19;35.20;30.10
19192;DHT22;9728;48.194;16.346;2022-07-23T19:42:22;35.20;30.40
19192;DHT22;9728;48.194;16.346;2022-07-23T19:47:26;35.10;30.20
19192;DHT22;9728;48.194;16.346;2022-07-23T19:52:31;35.10;30.30
19192;DHT22;9728;48.194;16.346;2022-07-23T19:57:36;35.10;30.40
19192;DHT22;9728;48.194;16.346;2022-07-23T20:02:40;35.00;30.40
19192;DHT22;9728;48.194;16.346;2022-07-23T20:07:45;35.00;30.40
19192;DHT22;9728;48.194;16.346;2022-07-23T20:12:49;34.90;30.60
19192;DHT22;9728;48.194;16.346;2022-07-23T20:17:54;34.80;30.50
19192;DHT22;9728;48.194;16.346;2022-07-23T20:22:59;34.70;30.40
19192;DHT22;9728;48.194;16.346;2022-07-23T20:28:03;34.60;30.50
19192;DHT22;9728;48.194;16.346;2022-07-23T20:33:07;34.50;30.50
19192;DHT22;9728;48.194;16.346;2022-07-23T20:38:12;34.50;30.60
19192;DHT22;9728;48.194;16.346;2022-07-23T20:43:16;34.40;30.60
19192;DHT22;9728;48.194;16.346;2022-07-23T20:48:20;34.40;30.60
19192;DHT22;9728;48.194;16.346;2022-07-23T20:53:31;34.30;30.50
19192;DHT22;9728;48.194;16.346;2022-07-23T20:58:34;34.30;30.60
19192;DHT22;9728;48.194;16.346;2022-07-23T21:03:37;34.20;30.60
19192;DHT22;9728;48.194;16.346;2022-07-23T21:08:42;34.10;30.70
19192;DHT22;9728;48.194;16.346;2022-07-23T21:13:46;34.00;30.90
19192;DHT22;9728;48.194;16.346;2022-07-23T21:18:49;34.00;31.00
19192;DHT22;9728;48.194;16.346;2022-07-23T21:23:54;33.90;31.10
19192;DHT22;9728;48.194;16.346;2022-07-23T21:28:57;33.80;31.20
19192;DHT22;9728;48.194;16.346;2022-07-23T21:34:02;33.70;31.30
19192;DHT22;9728;48.194;16.346;2022-07-23T21:39:07;33.60;31.40
19192;DHT22;9728;48.194;16.346;2022-07-23T21:44:11;33.50;31.70
19192;DHT22;9728;48.194;16.346;2022-07-23T21:49:14;33.40;31.60
19192;DHT22;9728;48.194;16.346;2022-07-23T21:54:19;33.40;31.80
19192;DHT22;9728;48.194;16.346;2022-07-23T21:59:24;33.30;31.90
19192;DHT22;9728;48.194;16.346;2022-07-23T22:04:27;33.20;32.00
19192;DHT22;9728;48.194;16.346;2022-07-23T22:09:32;33.20;32.20
19192;DHT22;9728;48.194;16.346;2022-07-23T22:14:36;33.20;32.40
19192;DHT22;9728;48.194;16.346;2022-07-23T22:19:40;33.20;32.50
19192;DHT22;9728;48.194;16.346;2022-07-23T22:24:44;33.10;32.50
19192;DHT22;9728;48.194;16.346;2022-07-23T22:29:48;33.00;32.70
19192;DHT22;9728;48.194;16.346;2022-07-23T22:34:51;33.00;32.70
19192;DHT22;9728;48.194;16.346;2022-07-23T22:39:56;32.90;32.80
19192;DHT22;9728;48.194;16.346;2022-07-23T22:45:00;32.90;33.00
19192;DHT22;9728;48.194;16.346;2022-07-23T22:50:04;32.80;32.90
19192;DHT22;9728;48.194;16.346;2022-07-23T22:55:14;32.80;33.10
19192;DHT22;9728;48.194;16.346;2022-07-23T23:00:17;32.80;33.20
19192;DHT22;9728;48.194;16.346;2022-07-23T23:05:22;32.80;33.20
19192;DHT22;9728;48.194;16.346;2022-07-23T23:10:27;32.80;33.30
19192;DHT22;9728;48.194;16.346;2022-07-23T23:15:30;32.80;33.30
19192;DHT22;9728;48.194;16.346;2022-07-23T23:20:33;32.80;33.30
19192;DHT22;9728;48.194;16.346;2022-07-23T23:25:38;32.80;34.00
19192;DHT22;9728;48.194;16.346;2022-07-23T23:30:42;32.80;33.40
19192;DHT22;9728;48.194;16.346;2022-07-23T23:35:47;32.80;33.30
19192;DHT22;9728;48.194;16.346;2022-07-23T23:40:52;32.80;33.40
19192;DHT22;9728;48.194;16.346;2022-07-23T23:45:56;32.80;33.50
19192;DHT22;9728;48.194;16.346;2022-07-23T23:50:59;32.80;33.50
19192;DHT22;9728;48.194;16.346;2022-07-23T23:56:05;32.80;33.50
